createdAt,value
2019-03-20T00:02:52.354Z,57.97
2019-03-20T00:05:56.723Z,63.00
2019-03-20T00:09:01.188Z,64.03
2019-03-20T00:12:05.536Z,64.80
2019-03-20T00:15:11.281Z,66.80
2019-03-20T00:18:15.620Z,71.40
2019-03-20T00:21:19.946Z,74.23
2019-03-20T00:24:24.314Z,71.07
2019-03-20T00:27:28.730Z,72.07
2019-03-20T00:30:33.079Z,71.83
2019-03-20T00:33:37.476Z,70.13
2019-03-20T00:36:41.849Z,70.40
2019-03-20T00:39:46.280Z,69.30
2019-03-20T00:42:50.635Z,64.40
2019-03-20T00:45:55.028Z,60.57
2019-03-20T00:48:59.397Z,63.00
2019-03-20T00:52:03.785Z,65.87
2019-03-20T00:55:08.700Z,66.33
2019-03-20T00:58:13.084Z,61.10
2019-03-20T01:01:17.357Z,61.90
2019-03-20T01:04:21.672Z,56.37
2019-03-20T01:07:26.023Z,61.83
2019-03-20T01:10:30.371Z,62.40
2019-03-20T01:13:34.679Z,61.80
2019-03-20T01:16:39.096Z,62.43
2019-03-20T01:19:43.456Z,67.50
2019-03-20T01:22:47.964Z,63.70
2019-03-20T01:25:53.256Z,70.83
2019-03-20T01:28:57.641Z,70.87
2019-03-20T01:32:02.034Z,67.30
2019-03-20T01:35:06.462Z,69.67
2019-03-20T01:38:10.827Z,66.47
2019-03-20T01:41:15.283Z,73.63
2019-03-20T01:44:19.560Z,67.73
2019-03-20T01:47:23.906Z,66.77
2019-03-20T01:50:28.287Z,67.23
2019-03-20T01:53:32.660Z,65.47
2019-03-20T01:56:37.027Z,67.50
2019-03-20T01:59:41.401Z,66.47
2019-03-20T02:02:45.672Z,67.40
2019-03-20T02:05:50.012Z,68.40
2019-03-20T02:08:54.372Z,66.90
2019-03-20T02:11:58.793Z,68.27
2019-03-20T02:15:03.168Z,67.90
2019-03-20T02:18:07.584Z,67.70
2019-03-20T02:21:11.942Z,65.47
2019-03-20T02:24:16.363Z,69.17
2019-03-20T02:27:20.739Z,60.00
2019-03-20T02:30:25.130Z,52.73
2019-03-20T02:33:29.477Z,46.17
2019-03-20T02:36:33.890Z,45.17
2019-03-20T02:39:38.241Z,45.47
2019-03-20T02:42:42.603Z,41.50
2019-03-20T02:45:46.967Z,40.53
2019-03-20T02:48:51.373Z,39.83
2019-03-20T02:51:55.725Z,40.73
2019-03-20T02:55:00.431Z,42.13
2019-03-20T02:58:04.892Z,39.03
2019-03-20T03:01:09.299Z,38.10
2019-03-20T03:04:13.646Z,40.10
2019-03-20T03:07:17.964Z,39.53
2019-03-20T03:10:22.412Z,41.90
2019-03-20T03:13:26.792Z,41.37
2019-03-20T03:16:31.151Z,41.90
2019-03-20T03:19:35.556Z,43.63
2019-03-20T03:22:39.918Z,45.77
2019-03-20T03:25:44.327Z,46.90
2019-03-20T03:28:48.717Z,44.70
2019-03-20T03:31:53.117Z,43.33
2019-03-20T03:34:57.489Z,40.70
2019-03-20T03:38:01.873Z,42.60
2019-03-20T03:41:06.256Z,42.23
2019-03-20T03:44:10.696Z,43.20
2019-03-20T03:47:15.086Z,42.07
2019-03-20T03:50:19.507Z,43.90
2019-03-20T03:53:23.879Z,45.90
2019-03-20T03:56:28.310Z,47.70
2019-03-20T03:59:32.715Z,47.50
2019-03-20T04:02:37.106Z,55.77
2019-03-20T04:05:41.502Z,56.87
2019-03-20T04:08:45.877Z,56.07
2019-03-20T04:11:50.263Z,53.63
2019-03-20T04:14:54.747Z,52.03
2019-03-20T04:17:59.116Z,53.13
2019-03-20T04:21:03.493Z,52.73
2019-03-20T04:24:07.863Z,55.13
2019-03-20T04:27:12.241Z,53.57
2019-03-20T04:30:17.039Z,55.23
2019-03-20T04:33:21.428Z,56.07
2019-03-20T04:36:25.833Z,55.30
2019-03-20T04:39:30.222Z,55.90
2019-03-20T04:42:34.620Z,70.93
2019-03-20T04:45:39.094Z,74.93
2019-03-20T04:48:43.470Z,67.23
2019-03-20T04:51:47.864Z,54.13
2019-03-20T04:54:52.218Z,52.80
2019-03-20T04:57:56.623Z,52.50
2019-03-20T05:01:00.908Z,43.53
2019-03-20T05:04:05.368Z,44.53
2019-03-20T05:07:09.747Z,50.73
2019-03-20T05:10:14.206Z,58.47
2019-03-20T05:13:18.551Z,70.27
2019-03-20T05:16:22.928Z,80.13
2019-03-20T05:19:27.295Z,73.97
2019-03-20T05:22:31.685Z,78.93
2019-03-20T05:25:36.065Z,78.27
2019-03-20T05:28:40.463Z,80.07
2019-03-20T05:31:44.822Z,78.50
2019-03-20T05:34:49.272Z,78.50
2019-03-20T05:37:53.655Z,79.90
2019-03-20T05:40:58.051Z,75.53
2019-03-20T05:44:02.490Z,61.97
2019-03-20T05:47:06.892Z,54.57
2019-03-20T05:50:13.062Z,49.77
2019-03-20T05:53:17.431Z,48.70
2019-03-20T05:56:21.741Z,47.17
2019-03-20T05:59:26.138Z,47.73
2019-03-20T06:02:30.527Z,48.17
2019-03-20T06:05:35.303Z,49.23
2019-03-20T06:08:39.643Z,48.73
2019-03-20T06:11:44.049Z,52.57
2019-03-20T06:15:07.550Z,50.77
2019-03-20T06:18:12.004Z,48.97
2019-03-20T06:21:16.406Z,53.13
2019-03-20T06:24:20.769Z,52.57
2019-03-20T06:27:25.056Z,54.07
2019-03-20T06:30:29.456Z,52.47
2019-03-20T06:33:33.856Z,53.13
2019-03-20T06:36:38.228Z,53.53
2019-03-20T06:39:42.611Z,51.70
2019-03-20T06:42:47.004Z,53.13
2019-03-20T06:45:51.386Z,51.30
2019-03-20T06:48:55.835Z,52.40
2019-03-20T06:52:00.128Z,55.00
2019-03-20T06:55:05.017Z,57.53
2019-03-20T06:58:09.376Z,51.37
2019-03-20T07:01:25.543Z,55.63
2019-03-20T07:04:41.200Z,56.50
2019-03-20T07:07:45.351Z,58.70
2019-03-20T07:11:18.231Z,62.27
2019-03-20T07:14:22.622Z,62.57
2019-03-20T07:17:27.010Z,65.70
2019-03-20T07:20:31.493Z,64.60
2019-03-20T07:23:35.820Z,64.23
2019-03-20T07:26:40.214Z,62.67
2019-03-20T07:29:44.577Z,62.93
2019-03-20T07:32:48.974Z,65.30
2019-03-20T07:35:53.334Z,70.03
2019-03-20T07:38:57.724Z,67.13
2019-03-20T07:42:02.180Z,61.47
2019-03-20T07:45:07.829Z,61.30
2019-03-20T07:48:21.596Z,62.27
2019-03-20T07:51:18.290Z,58.17
2019-03-20T07:54:22.649Z,60.93
2019-03-20T07:57:27.086Z,56.17
2019-03-20T08:00:31.431Z,57.83
2019-03-20T08:03:35.881Z,56.47
2019-03-20T08:06:40.250Z,60.60
2019-03-20T08:09:45.578Z,56.03
2019-03-20T08:12:49.937Z,53.27
2019-03-20T08:15:54.700Z,49.27
2019-03-20T08:18:59.066Z,51.73
2019-03-20T08:22:03.534Z,50.00
2019-03-20T08:25:07.996Z,50.60
2019-03-20T08:28:12.392Z,48.10
2019-03-20T08:31:16.700Z,45.40
2019-03-20T08:34:21.541Z,40.53
2019-03-20T08:37:25.914Z,37.27
2019-03-20T08:40:30.496Z,27.43
2019-03-20T08:43:34.828Z,22.83
2019-03-20T08:46:39.229Z,23.43
2019-03-20T08:49:43.623Z,16.13
2019-03-20T08:52:48.042Z,14.97
2019-03-20T08:55:52.428Z,12.17
2019-03-20T08:58:56.841Z,11.67
2019-03-20T09:02:01.224Z,10.73
2019-03-20T09:05:07.912Z,10.90
2019-03-20T09:08:12.204Z,11.87
2019-03-20T09:11:16.674Z,12.97
2019-03-20T09:14:21.032Z,12.63
2019-03-20T09:17:25.423Z,12.53
2019-03-20T09:20:29.876Z,11.97
2019-03-20T09:23:34.386Z,11.93
2019-03-20T09:26:38.747Z,12.07
2019-03-20T09:29:43.114Z,11.73
2019-03-20T09:32:48.398Z,11.30
2019-03-20T09:35:52.757Z,11.10
2019-03-20T09:38:57.144Z,11.83
2019-03-20T09:42:01.577Z,10.83
2019-03-20T09:45:07.274Z,10.83
2019-03-20T09:48:11.712Z,9.90
2019-03-20T09:51:16.056Z,9.87
2019-03-20T09:54:20.482Z,9.70
2019-03-20T09:57:24.849Z,8.80
2019-03-20T10:00:29.217Z,7.57
2019-03-20T10:03:33.560Z,7.30
2019-03-20T10:06:37.894Z,6.77
2019-03-20T10:09:42.235Z,7.50
2019-03-20T10:12:46.854Z,7.23
2019-03-20T10:15:51.124Z,7.87
2019-03-20T10:18:55.514Z,8.47
2019-03-20T10:21:59.880Z,8.70
2019-03-20T10:25:06.297Z,9.20
2019-03-20T10:28:10.640Z,9.37
2019-03-20T10:31:14.947Z,10.90
2019-03-20T10:34:19.303Z,10.23
2019-03-20T10:37:23.718Z,10.70
2019-03-20T10:40:28.085Z,10.87
2019-03-20T10:43:32.493Z,11.13
2019-03-20T10:46:36.904Z,11.47
2019-03-20T10:49:41.291Z,10.83
2019-03-20T10:52:45.661Z,10.17
2019-03-20T10:55:51.910Z,10.80
2019-03-20T10:58:56.108Z,11.13
2019-03-20T11:02:00.989Z,10.87
2019-03-20T11:05:06.595Z,10.77
2019-03-20T11:08:12.947Z,12.37
2019-03-20T11:11:26.597Z,11.33
2019-03-20T11:14:23.850Z,12.77
2019-03-20T11:17:28.223Z,11.23
2019-03-20T11:20:32.618Z,12.07
2019-03-20T11:23:36.985Z,11.57
2019-03-20T11:26:41.387Z,13.00
2019-03-20T11:29:45.765Z,12.07
2019-03-20T11:32:50.200Z,11.30
2019-03-20T11:35:54.551Z,12.90
2019-03-20T11:38:58.966Z,13.47
2019-03-20T11:42:06.495Z,12.40
2019-03-20T11:45:12.097Z,12.97
2019-03-20T11:48:16.448Z,13.00
2019-03-20T11:51:20.776Z,12.97
2019-03-20T11:54:25.144Z,12.00
2019-03-20T11:57:29.508Z,12.93
2019-03-20T12:00:33.972Z,10.97
2019-03-20T12:03:38.381Z,12.13
2019-03-20T12:06:42.736Z,11.67
2019-03-20T12:09:47.128Z,11.57
2019-03-20T12:12:51.504Z,10.77
2019-03-20T12:15:55.987Z,10.73
2019-03-20T12:19:00.389Z,10.77
2019-03-20T12:22:04.768Z,10.43
2019-03-20T12:25:11.399Z,9.90
2019-03-20T12:28:15.987Z,10.27
2019-03-20T12:31:20.357Z,9.87
2019-03-20T12:34:24.735Z,9.23
2019-03-20T12:37:29.106Z,9.17
2019-03-20T12:40:33.493Z,9.93
2019-03-20T12:43:37.890Z,9.27
2019-03-20T12:46:42.372Z,8.33
2019-03-20T12:49:46.687Z,8.30
2019-03-20T12:52:51.065Z,8.67
2019-03-20T12:55:55.418Z,9.07
2019-03-20T12:58:59.843Z,7.97
2019-03-20T13:02:04.194Z,8.83
2019-03-20T13:05:09.677Z,8.00
2019-03-20T13:08:14.063Z,8.23
2019-03-20T13:11:19.572Z,8.67
2019-03-20T13:14:23.961Z,7.93
2019-03-20T13:17:28.347Z,8.87
2019-03-20T13:20:32.619Z,9.17
2019-03-20T13:23:36.990Z,9.30
2019-03-20T13:26:41.333Z,9.20
2019-03-20T13:29:45.753Z,9.23
2019-03-20T13:32:50.114Z,8.70
2019-03-20T13:35:54.557Z,9.67
2019-03-20T13:38:58.921Z,9.40
2019-03-20T13:42:03.299Z,8.63
2019-03-20T13:45:11.048Z,8.50
2019-03-20T13:48:15.506Z,8.70
2019-03-20T13:51:19.871Z,8.97
2019-03-20T13:54:24.255Z,10.07
2019-03-20T13:57:28.642Z,9.63
2019-03-20T14:00:32.982Z,8.50
2019-03-20T14:03:37.408Z,9.50
2019-03-20T14:06:41.809Z,9.33
2019-03-20T14:09:46.161Z,9.20
2019-03-20T14:12:50.567Z,9.37
2019-03-20T14:15:55.022Z,8.77
2019-03-20T14:18:59.488Z,8.60
2019-03-20T14:22:03.916Z,9.50
2019-03-20T14:25:08.932Z,9.70
2019-03-20T14:28:13.326Z,9.70
2019-03-20T14:31:19.321Z,10.10
2019-03-20T14:34:25.810Z,9.47
2019-03-20T14:37:30.222Z,8.87
2019-03-20T14:40:36.531Z,9.30
2019-03-20T14:43:41.284Z,9.27
2019-03-20T14:46:45.687Z,9.57
2019-03-20T14:49:50.131Z,10.03
2019-03-20T14:52:54.540Z,8.77
2019-03-20T14:55:58.962Z,9.23
2019-03-20T14:59:03.367Z,9.13
2019-03-20T15:02:07.788Z,10.37
2019-03-20T15:05:12.140Z,9.80
2019-03-20T15:08:16.773Z,9.50
2019-03-20T15:11:21.125Z,9.77
2019-03-20T15:14:25.647Z,8.43
2019-03-20T15:17:30.205Z,8.10
2019-03-20T15:20:35.087Z,8.80
2019-03-20T15:23:39.616Z,8.63
2019-03-20T15:26:46.754Z,7.83
2019-03-20T15:29:52.137Z,8.60
2019-03-20T15:32:56.738Z,9.50
2019-03-20T15:36:01.148Z,8.87
2019-03-20T15:39:07.815Z,8.43
2019-03-20T15:42:12.184Z,9.23
2019-03-20T15:45:17.634Z,9.30
2019-03-20T15:48:22.031Z,8.87
2019-03-20T15:51:35.182Z,8.27
2019-03-20T15:54:39.676Z,8.70
2019-03-20T15:57:44.242Z,8.73
2019-03-20T16:00:48.816Z,9.47
2019-03-20T16:03:53.219Z,8.93
2019-03-20T16:06:57.601Z,8.57
2019-03-20T16:10:02.001Z,8.37
2019-03-20T16:13:06.525Z,8.67
2019-03-20T16:16:10.953Z,8.07
2019-03-20T16:19:15.349Z,7.87
2019-03-20T16:22:22.424Z,8.07
2019-03-20T16:25:26.841Z,7.63
2019-03-20T16:28:31.353Z,7.87
2019-03-20T16:31:36.470Z,8.60
2019-03-20T16:34:40.889Z,8.37
2019-03-20T16:37:45.270Z,8.43
2019-03-20T16:40:49.981Z,8.30
2019-03-20T16:43:55.041Z,8.43
2019-03-20T16:46:59.472Z,7.80
2019-03-20T16:50:04.005Z,8.67
2019-03-20T16:53:09.651Z,8.43
2019-03-20T16:56:14.075Z,7.87
2019-03-20T16:59:18.515Z,8.03
2019-03-20T17:02:22.891Z,8.80
2019-03-20T17:05:27.295Z,8.33
2019-03-20T17:08:31.728Z,8.33
2019-03-20T17:11:38.567Z,8.77
2019-03-20T17:14:42.243Z,10.33
2019-03-20T17:17:46.659Z,11.00
2019-03-20T17:20:51.385Z,10.90
2019-03-20T17:23:56.485Z,11.67
2019-03-20T17:27:00.886Z,12.53
2019-03-20T17:30:06.647Z,12.50
2019-03-20T17:33:11.038Z,15.10
2019-03-20T17:36:15.435Z,15.00
2019-03-20T17:39:19.815Z,15.43
2019-03-20T17:42:24.218Z,16.20
2019-03-20T17:45:29.505Z,15.93
2019-03-20T17:48:33.927Z,16.33
2019-03-20T17:51:38.351Z,16.53
2019-03-20T17:54:42.811Z,18.37
2019-03-20T17:57:47.234Z,17.77
2019-03-20T18:00:51.951Z,20.43
2019-03-20T18:03:56.328Z,22.10
2019-03-20T18:07:00.751Z,23.13
2019-03-20T18:10:05.434Z,25.30
2019-03-20T18:13:09.968Z,29.57
2019-03-20T18:16:14.268Z,31.40
2019-03-20T18:19:18.701Z,32.97
2019-03-20T18:22:23.072Z,35.10
2019-03-20T18:25:27.896Z,35.53
2019-03-20T18:28:32.358Z,37.43
2019-03-20T18:31:45.771Z,38.40
2019-03-20T18:34:42.842Z,38.40
2019-03-20T18:37:47.378Z,38.70
2019-03-20T18:40:51.737Z,41.07
2019-03-20T18:43:56.290Z,42.13
2019-03-20T18:47:01.387Z,43.87
2019-03-20T18:50:06.681Z,48.73
2019-03-20T18:53:11.060Z,46.90
2019-03-20T18:56:15.521Z,48.83
2019-03-20T18:59:22.970Z,48.97
2019-03-20T19:02:29.040Z,51.10
2019-03-20T19:05:42.822Z,50.53
2019-03-20T19:08:49.480Z,52.17
2019-03-20T19:11:53.895Z,52.00
2019-03-20T19:14:58.631Z,53.97
2019-03-20T19:18:03.269Z,56.37
2019-03-20T19:21:09.376Z,57.23
2019-03-20T19:24:14.805Z,55.37
2019-03-20T19:28:03.377Z,57.70
2019-03-20T19:31:04.649Z,56.47
2019-03-20T19:34:27.915Z,58.13
2019-03-20T19:38:03.998Z,59.03
2019-03-20T19:41:09.003Z,59.63
2019-03-20T19:44:13.437Z,59.53
2019-03-20T19:47:18.963Z,59.93
2019-03-20T19:50:23.397Z,60.20
2019-03-20T19:53:28.022Z,58.70
2019-03-20T19:56:32.415Z,56.80
2019-03-20T19:59:36.896Z,59.70
2019-03-20T20:02:42.460Z,57.73
2019-03-20T20:05:46.975Z,56.77
2019-03-20T20:08:51.796Z,56.37
2019-03-20T20:11:56.240Z,59.40
2019-03-20T20:15:00.876Z,59.37
2019-03-20T20:18:05.524Z,60.10
2019-03-20T20:21:11.724Z,59.83
2019-03-20T20:24:16.329Z,63.03
2019-03-20T20:27:20.729Z,62.73
2019-03-20T20:30:25.151Z,67.37
2019-03-20T20:33:29.538Z,65.60
2019-03-20T20:36:34.063Z,68.47
2019-03-20T20:39:38.468Z,70.87
2019-03-20T20:42:43.462Z,71.10
2019-03-20T20:45:47.988Z,72.23
2019-03-20T20:48:52.435Z,74.17
2019-03-20T20:51:56.890Z,73.37
2019-03-20T20:55:01.439Z,76.00
2019-03-20T20:58:06.440Z,72.97
2019-03-20T21:01:11.130Z,71.57
2019-03-20T21:04:15.599Z,72.87
2019-03-20T21:07:21.408Z,72.80
2019-03-20T21:10:25.816Z,71.70
2019-03-20T21:13:30.712Z,75.83
2019-03-20T21:16:36.028Z,73.03
2019-03-20T21:19:41.350Z,73.57
2019-03-20T21:23:32.262Z,73.53
2019-03-20T21:26:40.185Z,72.80
2019-03-20T21:30:29.096Z,72.30
2019-03-20T21:34:03.839Z,74.30
2019-03-20T21:38:00.176Z,76.20
2019-03-20T21:42:10.023Z,73.50
2019-03-20T21:45:45.961Z,78.13
2019-03-20T21:48:50.910Z,76.60
2019-03-20T21:51:55.808Z,77.13
2019-03-20T21:55:50.814Z,73.57
2019-03-20T21:59:24.128Z,69.27
2019-03-20T22:02:47.911Z,69.03
2019-03-20T22:06:38.231Z,68.70
2019-03-20T22:10:32.487Z,65.87
2019-03-20T22:13:50.387Z,66.83
2019-03-20T22:17:50.096Z,63.97
2019-03-20T22:21:17.188Z,62.73
2019-03-20T22:24:55.741Z,65.07
2019-03-20T22:28:27.564Z,63.53
2019-03-20T22:31:33.315Z,62.63
2019-03-20T22:34:53.479Z,61.93
2019-03-20T22:37:59.544Z,61.67
2019-03-20T22:41:36.884Z,63.20
2019-03-20T22:45:07.072Z,63.37
2019-03-20T22:48:51.583Z,63.63
2019-03-20T22:52:42.035Z,62.47
2019-03-20T22:56:25.408Z,60.60
2019-03-20T22:59:30.331Z,60.57
2019-03-20T23:02:44.163Z,60.43
2019-03-20T23:05:49.096Z,63.07
2019-03-20T23:08:54.012Z,63.70
2019-03-20T23:12:01.292Z,62.30
2019-03-20T23:15:09.225Z,64.20
2019-03-20T23:18:14.101Z,62.80
2019-03-20T23:21:19.011Z,62.60
2019-03-20T23:24:23.954Z,63.00
2019-03-20T23:27:31.751Z,62.67
2019-03-20T23:30:36.676Z,62.47
2019-03-20T23:33:41.507Z,58.67
2019-03-20T23:36:46.530Z,60.27
2019-03-20T23:39:51.430Z,62.30
2019-03-20T23:42:56.386Z,60.97
2019-03-20T23:46:01.273Z,59.60
2019-03-20T23:49:12.719Z,59.50
2019-03-20T23:52:17.630Z,58.47
2019-03-20T23:55:22.565Z,57.70
2019-03-20T23:58:27.474Z,58.60
